• Join FlightAware (Why Join?)
  • Login
  • US Flag 
07:56PM EDT


 

Airport Tracker/Info


-or-


 

Live Flight TrackerFlight Track Log ✈ N440DM ✈ 17-Jun-2013 ✈ KCLE - KFXE

Flight Track Log - Related Links

Times and Time Zones

All times are in EDT time to prevent confusion due to time zone crossing. See the N440DM flight status page for this flight to view local times or setup timezone preferences in your user account.

Time Position Orientation Groundspeed Altitude Reporting Facility
EDT Latitude Longitude Course Direction KTS MPH feet Rate Location/Type
05:52PM 41.2997 -81.9208 200° South 266 306 7,200  Level Cleveland Center
05:53PM 41.2306 -81.9414 193° South 271 312 11,100 3,600 Climbing Cleveland Center
05:54PM 41.1447 -81.9672 193° South 297 342 14,500 3,660 Climbing Cleveland Center
05:55PM 41.0339 -82.0008 193° South 346 398 18,500 3,300 Climbing Cleveland Center
05:56PM 40.9336 -82.0317 193° South 363 418 21,100 2,640 Climbing Cleveland Center
05:58PM 40.7633 -82.1500 208° Southwest 353 406 26,900 2,580 Climbing Indianapolis Center
05:59PM 40.6667 -82.2156 207° Southwest 382 440 29,400 2,700 Climbing Indianapolis Center
06:00PM 40.5622 -82.2931 209° Southwest 371 427 32,600 1,740 Climbing Indianapolis Center
06:01PM 40.4675 -82.3622 209° Southwest 382 440 33,000 240 Climbing Indianapolis Center
06:02PM 40.3625 -82.4375 209° Southwest 416 479 33,200 480 Climbing Indianapolis Center
06:03PM 40.2608 -82.5108 209° Southwest 418 481 34,000 420 Climbing Indianapolis Center
06:04PM 40.1617 -82.5794 208° Southwest 403 464 34,100 780 Climbing Indianapolis Center
06:05PM 40.0336 -82.5725 178° South 454 522 35,700 1,380 Climbing Indianapolis Center
06:06PM 39.9031 -82.5539 174° South 465 535 37,000 1,080 Climbing Indianapolis Center
06:07PM 39.7722 -82.5347 174° South 468 539 38,000 960 Climbing Indianapolis Center
06:08PM 39.6411 -82.5181 174° South 466 536 39,100 900 Climbing Indianapolis Center
06:09PM 39.5131 -82.5011 174° South 458 527 39,900 420 Climbing Indianapolis Center
06:10PM 39.3583 -82.4797 174° South 471 542 40,000  Climbing Indianapolis Center
06:11PM 39.2275 -82.4631 174° South 476 548 40,000  Level Indianapolis Center
06:12PM 39.0981 -82.4442 174° South 470 541 40,000  Level Indianapolis Center
06:13PM 38.9669 -82.4275 174° South 474 545 40,000  Level Indianapolis Center
06:14PM 38.8372 -82.4100 174° South 471 542 40,000  Level Indianapolis Center
06:16PM 38.7058 -82.3922 174° South 477 549 40,000  Level Indianapolis Center
06:17PM 38.5506 -82.3717 174° South 470 541 40,000  Level Indianapolis Center
06:18PM 38.4183 -82.3550 174° South 477 549 40,000  Level Indianapolis Center
06:19PM 38.2889 -82.3381 174° South 472 543 40,000  Level Indianapolis Center
06:20PM 38.1578 -82.3228 175° South 472 543 40,000  Level Indianapolis Center
06:21PM 38.0119 -82.3008 173° South 475 547 40,000  Level Indianapolis Center
06:23PM 37.7561 -82.2922 178° South 455 524 40,000  Level Indianapolis Center
06:24PM 37.6336 -82.2969 182° South 439 505 40,000  Level Indianapolis Center
06:25PM 37.5128 -82.3208 189° South 437 503 40,000  Level Indianapolis Center
06:26PM 37.3672 -82.3414 186° South 446 513 40,000  Level Indianapolis Center
06:27PM 37.2411 -82.3164 171° South 454 522 40,000  Level Indianapolis Center
06:28PM 37.1158 -82.2931 172° South 452 520 40,000  Level Indianapolis Center
06:29PM 36.9900 -82.2697 172° South 451 519 40,000  Level Indianapolis Center
06:30PM 36.8653 -82.2483 172° South 447 514 40,000  Level Indianapolis Center
06:31PM 36.7433 -82.2261 172° South 441 507 40,000  Level Indianapolis Center
06:32PM 36.6214 -82.2050 172° South 440 506 40,000  Level Indianapolis Center
06:33PM 36.5386 -82.1914 172° South 448 516 40,000  Level Atlanta Center
06:34PM 36.4153 -82.1683 171° South 448 516 40,000  Level Atlanta Center
06:35PM 36.2919 -82.1481 172° South 448 516 40,000  Level Atlanta Center
06:36PM 36.1686 -82.1303 173° South 443 510 40,000  Level Atlanta Center
06:37PM 36.0494 -82.1075 171° South 443 510 40,000  Level Atlanta Center
06:38PM 35.9300 -82.0872 172° South 443 510 40,000  Level Atlanta Center
06:39PM 35.8111 -82.0722 174° South 437 503 40,000  Level Atlanta Center
06:40PM 35.6858 -82.0725 180° South 453 521 40,000  Level Atlanta Center
06:41PM 35.5500 -82.0656 178° South 458 527 40,000  Level Atlanta Center
06:42PM 35.4269 -82.0686 181° South 453 521 40,000  Level Atlanta Center
06:43PM 35.3039 -82.0689 180° South 448 516 40,000  Level Atlanta Center
06:44PM 35.1850 -82.0692 180° South 434 499 40,000  Level Atlanta Center
06:45PM 35.0619 -82.0722 181° South 434 499 40,000  Level Atlanta Center
06:46PM 34.9450 -82.0725 180° South 434 499 40,000  Level Atlanta Center
06:47PM 34.8242 -82.0703 179° South 434 499 40,000  Level Atlanta Center
06:48PM 34.7008 -82.0706 180° South 440 506 40,000  Level Atlanta Center
06:49PM 34.5903 -82.0758 182° South 440 506 40,000  Level Atlanta Center
06:50PM 34.4672 -82.0736 179° South 445 512 40,000  Level Atlanta Center
06:51PM 34.3400 -82.0739 180° South 445 512 40,000  Level Atlanta Center
06:52PM 34.2169 -82.0744 180° South 445 512 40,000  Level Atlanta Center
06:53PM 34.0917 -82.0722 179° South 445 512 40,000  Level Atlanta Center
06:54PM 33.9642 -82.0675 178° South 450 518 40,000  Level Atlanta Center
06:55PM 33.8389 -82.0631 178° South 455 524 40,000  Level Atlanta Center
06:56PM 33.6989 -82.0589 179° South 462 532 40,000  Level Atlanta Center
06:57PM 33.5717 -82.0542 178° South 462 532 40,000  Level Atlanta Center
06:58PM 33.4442 -82.0547 180° South 462 532 40,000  Level Atlanta Center
06:59PM 33.3147 -82.0528 179° South 462 532 40,000  Level Atlanta Center
07:01PM 33.0636 -82.0522 180° South 453 521 40,000  Level Jacksonville Center
07:02PM 32.9361 -82.0511 180° South 458 527 40,000  Level Jacksonville Center
07:03PM 32.8233 -82.0472 178° South 458 527 40,000  Level Jacksonville Center
07:04PM 32.7003 -82.0483 180° South 458 527 40,000  Level Jacksonville Center
07:05PM 32.5750 -82.0444 179° South 458 527 40,000  Level Jacksonville Center
07:06PM 32.4517 -82.0408 179° South 458 527 40,000  Level Jacksonville Center
07:07PM 32.3181 -82.0419 180° South 448 516 40,000  Level Jacksonville Center
07:08PM 32.1928 -82.0383 179° South 442 509 40,000  Level Jacksonville Center
07:09PM 32.0675 -82.0344 178° South 442 509 40,000  Level Jacksonville Center
07:10PM 31.9444 -82.0283 178° South 449 517 40,000  Level Jacksonville Center
07:11PM 31.8317 -82.0172 175° South 449 517 40,000  Level Jacksonville Center
07:12PM 31.7078 -81.9425 153° Southeast 449 517 40,000  Level Jacksonville Center
07:13PM 31.6278 -81.8458 134° Southeast 457 526 40,000  Level Jacksonville Center
07:14PM 31.5286 -81.7300 135° Southeast 457 526 40,000  Level Jacksonville Center
07:15PM 31.4378 -81.6217 134° Southeast 457 526 40,000  Level Jacksonville Center
07:16PM 31.3553 -81.5303 137° Southeast 457 526 40,000  Level Jacksonville Center
07:17PM 31.2625 -81.4269 136° Southeast 457 526 40,000  Level Jacksonville Center
07:18PM 31.1611 -81.3314 141° Southeast 463 533 40,000  Level Jacksonville Center
07:19PM 31.0556 -81.2411 144° Southeast 468 539 40,000  Level Jacksonville Center
07:20PM 30.9356 -81.1753 155° Southeast 465 535 40,000  Level Jacksonville Center
07:21PM 30.8117 -81.1269 161° South 465 535 40,000  Level Jacksonville Center
07:22PM 30.6942 -81.0736 159° South 465 535 40,000  Level Jacksonville Center
07:23PM 30.5700 -81.0203 160° South 465 535 40,000  Level Jacksonville Center
07:24PM 30.4483 -80.9697 160° South 470 541 40,000  Level Jacksonville Center
07:25PM 30.3158 -80.9147 160° South 470 541 40,000  Level Jacksonville Center
07:26PM 30.1939 -80.8619 159° South 465 535 40,000  Level Jacksonville Center
07:27PM 30.0700 -80.8117 161° South 465 535 40,000  Level Jacksonville Center
07:28PM 29.9481 -80.7617 160° South 465 535 40,000  Level Jacksonville Center
07:29PM 29.8283 -80.7117 160° South 465 535 40,000  Level Jacksonville Center
07:30PM 29.7083 -80.6592 159° South 465 535 40,000  Level Jacksonville Center
07:31PM 29.5886 -80.6094 160° South 465 535 40,000  Level Jacksonville Center
07:32PM 29.4664 -80.5597 160° South 465 535 40,000  Level Jacksonville Center
07:33PM 29.3494 -80.5106 160° South 461 531 40,000  Level Miami Center
07:34PM 29.2278 -80.4589 160° South 481 554 40,000  Level Miami Center
07:35PM 29.1058 -80.4097 161° South 481 554 40,000  Level Miami Center
07:36PM 28.9819 -80.3583 160° South 476 548 40,000 -240 Level Miami Center
07:37PM 28.8644 -80.3072 159° South 465 535 39,600 -1,200 Descending Miami Center
07:38PM 28.7425 -80.2583 161° South 460 529 37,700 -1,980 Descending Miami Center
07:39PM 28.6369 -80.2150 160° South 460 529 35,700 -1,800 Descending Miami Center
07:40PM 28.5192 -80.1689 161° South 453 521 34,100 -900 Descending Miami Center
07:41PM 28.3825 -80.1247 164° South 453 521 34,000 -720 Descending Miami Center
07:42PM 28.2581 -80.0836 164° South 464 534 32,700 -1,020 Descending Miami Center
07:43PM 28.1358 -80.0447 164° South 457 526 32,000 -360 Descending Miami Center
07:44PM 28.0261 -80.0086 164° South 457 526 32,000 -120 Level Miami Center
07:45PM 27.9039 -79.9675 163° South 452 520 31,800 -1,140 Descending Miami Center
07:46PM 27.7772 -79.9289 165° South 462 532 29,800 -2,280 Descending Miami Center
07:47PM 27.6508 -79.8833 162° South 462 532 27,300 -2,220 Descending Miami Center
07:48PM 27.5264 -79.8450 165° South 446 513 25,400 -1,860 Descending Miami Center
07:49PM 27.4228 -79.8119 164° South 447 514 23,600 -1,740 Descending Miami Center
07:50PM 27.3128 -79.7764 164° South 426 490 22,000 -1,800 Descending Miami Center
07:51PM 27.1964 -79.7431 166° South 405 466 20,100 -1,920 Descending Miami Center
07:52PM 27.0947 -79.7103 164° South 390 449 18,200 -1,920 Descending Miami Center
07:53PM 26.9972 -79.6797 164° South 385 443 16,300 -1,620 Descending Miami Center
07:54PM 26.9058 -79.6544 166° South 369 425 15,000 -1,080 Descending Miami Center
07:55PM 26.7972 -79.6611 183° South 362 417 14,200 -1,320 Descending Miami Center
07:56PM 26.7064 -79.7053 203° Southwest 373 429 12,400 -1,860 Descending Miami Center
07:57PM 26.5947 -79.7583 203° Southwest 397 457 10,500 -2,100 Descending Miami Center
07:57PM 26.5419 -79.7850 204° Southwest 385 443 9,300 -2,100 Descending Miami Center
07:58PM 26.5103 -79.7983 201° Southwest 391 450 8,400 -900 Descending Miami Center
07:59PM 26.4197 -79.8422 203° Southwest 343 395 8,000 -720 Descending Miami Center
08:00PM 26.3622 -79.8919 218° Southwest 283 326 7,000 -1,680 Descending Miami Center
08:00PM 26.3508 -79.9333 253° West 314 361 5,900 -3,120 Descending Miami Center
08:01PM 26.3372 -79.9933 256° West 291 335 3,900 -1,800 Descending Miami Center
08:02PM 26.3211 -80.0600 255° West 275 316 2,800 -840 Descending Miami Center
08:03PM 26.2822 -80.1144 231° Southwest 223 257 2,300 -420 Descending Miami Center
08:03PM 26.2736 -80.1283 235° Southwest 171 197 2,300 -540 Level Miami Center
08:04PM 26.2542 -80.1533 229° Southwest 184 212 1,800 -420 Descending Miami Center
08:04PM 26.2433 -80.1714 236° Southwest 179 206 1,900  Climbing Miami Center
08:05PM 26.2383 -80.2036 260° West 170 196 1,800 -300 Descending Miami Center
08:05PM 26.2233 -80.2194 223° Southwest 175 201 1,600 -900 Descending Miami Center
08:06PM 26.2008 -80.2097 159° South 129 148 900 -1,200 Descending Miami Center
08:06PM 26.1925 -80.1978 128° Southeast 135 155 300 -720 Descending Miami Center
08:07PM 26.1886 -80.1883 115° Southeast 94 108 200 -240 Descending Miami Center